Relevés horaires Melle (Belgique)


Relevés horaires à Melle - Vendredi 16 Oct. 2015
Heure UTC1 Température [°C] Vent [km/h] Hum. [%] Pres.4 [hPa] Visi. [Km] Nébu. [octa] Préc.5 [mm] Cond.
2m. Res. Ros. Dir.2 Vit. Moy. Raf.3
23:00 8.2 8.2 7.5 SO 3.7 3.7 5.6 95 1018.6(-1.0/3h) -- -- -- --
22:00 8.2 8.2 7.4 OSO 1.9 3.7 5.6 95 1018.9(-0.7/3h) -- -- -- --
21:00 8.2 8.2 7.4 O 1.9 3.7 5.6 95 1019.4(-0.3/3h) -- -- -- --
20:00 8.1 8.1 7.3 O 1.9 3.7 5.6 95 1019.6(0.0/3h) -- -- -- --
19:00 8.2 8.2 7.3 O 3.7 3.7 5.6 94 1019.6(-0.1/3h) -- -- -- --
18:00 7.9 7.9 7.0 OSO 3.7 3.7 5.6 94 1019.7(-0.2/3h) -- -- 1/12h
--
17:00 7.8 7.8 6.8 OSO 3.7 3.7 5.6 93 1019.6(-0.1/3h) -- -- -- --
16:00 8.0 8.0 6.7 OSO 1.9 3.7 3.7 91 1019.7(0.0/3h) -- -- -- --
15:00 8.0 8.0 6.5 O 1.9 3.7 5.6 90 1019.9(0.1/3h) -- -- -- --
14:00 8.1 8.1 6.4 OSO 1.9 1.9 3.7 89 1019.7(-0.1/3h) -- -- -- --
13:00 7.9 7.9 6.3 O 1.9 3.7 5.6 90 1019.7(0.0/3h) -- -- -- --
12:00 7.8 7.8 6.3 S 3.7 3.7 7.4 90 1019.8(0.4/3h) -- -- 0/0h
0/6h
--
11:00 7.7 7.7 6.6 SE 3.7 3.7 5.6 93 1019.8(1.0/3h) -- -- -- --
10:00 7.7 7.7 6.8 SE 3.7 3.7 7.4 94 1019.7(1.5/3h) -- -- -- --
09:00 7.6 7.6 6.8 E 3.7 3.7 5.6 95 1019.4(1.9/3h) -- -- -- --
08:00 7.3 7.3 6.6 E 3.7 3.7 5.6 95 1018.8(1.9/3h) -- -- -- --
07:00 7.1 7.1 6.3 NE 3.7 3.7 5.6 95 1018.2(1.6/3h) -- -- -- --
06:00 6.9 6.9 6.2 E 3.7 3.7 7.4 95 1017.5(0.9/3h) -- -- 5/12h
--
05:00 7.1 7.1 6.3 ESE 1.9 3.7 5.6 95 1016.9(0.1/3h) -- -- -- --
04:00 7.2 7.2 6.5 ESE 3.7 3.7 5.6 95 1016.6(-0.5/3h) -- -- -- --
03:00 7.2 7.2 6.5 S 1.9 3.7 7.4 95 1016.6(-1.0/3h) -- -- -- --
02:00 7.1 7.1 6.3 OSO 1.9 3.7 5.6 95 1016.8(-1.3/3h) -- -- -- --
01:00 6.9 6.9 6.2 O 3.7 3.7 7.4 95 1017.1(-1.4/3h) -- -- -- --
00:00 6.8 6.8 6.0 O 3.7 7.4 11.1 95 1017.6(-1.5/3h) -- -- 1/6h
--

1 Coordinated Universal Time. Actuellement il est 10:00 locale et 08:00 UTC.

2 Le vent souffle depuis la direction indiquée vers la direction oposée.

3 Les rafales max. sont disponible 40 min après l'heure du relevé.

4 Pour les stations d'altitude (plus de 600m) le géopotentiel du niveau le plus proche de la pression obligatoire est indiqué.

5 Les stations disposant d'un diffuseur peuvent indiquer "trace". Cela signifie que des précipitations ont touchés le sol mais que la quantité est inférieure à 0.1 mm.

Récapitulatif de la journée
Température [°C] Vent [km/h] Ensoleillement4 [h] Precipitations totale5 [mm] Pression [Hpa]
Min1 Max.2 Moy.3 Max. Min Max.
6.0 8.4 3.8 11.1 0 h 0 min 0 1016.6 1019.9

1 Température minimale relevée entre 18:00 UTC la veille et 18:00 UTC le jour donné.

2 Température maximale relevée entre 06:00 UTC le jour donné et 06:00 UTC le lendemain.

3 Vent moyen de la journée basé sur les relevés horaires.

4 Ensoleillement en heures relevé entre 06:00 UTC la veille et 06:00 UTC le jour donné.

5 Précipitations totales tombées entre 06:00 UTC la jour donné et 06:00 UTC le lendemain.

Graphiques horaires